createdAt,value
2023-04-09T00:01:17.837Z,102718.44
2023-04-09T00:03:44.412Z,102710.84
2023-04-09T00:06:11.898Z,102712.75
2023-04-09T00:08:38.323Z,102715.94
2023-04-09T00:11:05.056Z,102711.91
2023-04-09T00:13:39.338Z,102709.81
2023-04-09T00:16:07.543Z,102712.53
2023-04-09T00:18:34.124Z,102719.53
2023-04-09T00:21:00.703Z,102715.53
2023-04-09T00:23:27.529Z,102721.22
2023-04-09T00:25:54.352Z,102719.03
2023-04-09T00:28:20.880Z,102702.50
2023-04-09T00:30:47.291Z,102706.00
2023-04-09T00:33:13.916Z,102705.22
2023-04-09T00:35:41.605Z,102700.91
2023-04-09T00:38:08.085Z,102709.50
2023-04-09T00:40:34.486Z,102700.69
2023-04-09T00:43:01.184Z,102699.31
2023-04-09T00:45:28.158Z,102694.41
2023-04-09T00:47:54.649Z,102698.78
2023-04-09T00:50:21.518Z,102692.09
2023-04-09T00:52:48.089Z,102698.78
2023-04-09T00:55:15.529Z,102689.38
2023-04-09T00:57:42.073Z,102687.19
2023-04-09T01:00:09.774Z,102687.19
2023-04-09T01:02:36.877Z,102684.19
2023-04-09T01:05:04.069Z,102687.38
2023-04-09T01:07:47.455Z,102683.09
2023-04-09T01:10:31.998Z,102685.28
2023-04-09T01:12:58.499Z,102684.47
2023-04-09T01:15:27.200Z,102685.88
2023-04-09T01:18:03.032Z,102676.75
2023-04-09T01:20:35.499Z,102679.16
2023-04-09T01:23:18.782Z,102674.34
2023-04-09T01:25:59.678Z,102675.47
2023-04-09T01:28:32.213Z,102676.75
2023-04-09T01:31:03.060Z,102679.75
2023-04-09T01:33:31.466Z,102677.38
2023-04-09T01:36:00.026Z,102667.34
2023-04-09T01:38:27.655Z,102670.34
2023-04-09T01:40:56.508Z,102667.94
2023-04-09T01:43:25.200Z,102662.81
2023-04-09T01:45:51.938Z,102664.16
2023-04-09T01:48:19.613Z,102669.25
2023-04-09T01:50:46.837Z,102663.88
2023-04-09T01:53:13.860Z,102670.06
2023-04-09T01:55:40.260Z,102665.25
2023-04-09T01:58:06.758Z,102664.38
2023-04-09T02:00:39.989Z,102664.06
2023-04-09T02:03:12.600Z,102657.63
2023-04-09T02:05:44.614Z,102666.25
2023-04-09T02:08:13.426Z,102660.53
2023-04-09T02:10:40.683Z,102656.25
2023-04-09T02:13:12.611Z,102662.16
2023-04-09T02:15:40.389Z,102652.44
2023-04-09T02:18:21.319Z,102652.16
2023-04-09T02:20:47.738Z,102653.75
2023-04-09T02:23:16.060Z,102649.75
2023-04-09T02:25:44.192Z,102642.75
2023-04-09T02:28:10.668Z,102641.94
2023-04-09T02:30:37.237Z,102639.56
2023-04-09T02:33:03.813Z,102641.63
2023-04-09T02:35:30.411Z,102641.34
2023-04-09T02:37:57.007Z,102635.94
2023-04-09T02:40:23.513Z,102640.06
2023-04-09T02:42:52.012Z,102640.34
2023-04-09T02:45:18.716Z,102636.53
2023-04-09T02:47:45.226Z,102633.03
2023-04-09T02:50:11.686Z,102633.91
2023-04-09T02:52:38.063Z,102631.75
2023-04-09T02:55:04.980Z,102631.66
2023-04-09T02:57:33.778Z,102628.34
2023-04-09T03:00:00.594Z,102626.25
2023-04-09T03:02:27.499Z,102623.75
2023-04-09T03:04:54.170Z,102627.84
2023-04-09T03:07:20.609Z,102631.88
2023-04-09T03:09:46.989Z,102625.13
2023-04-09T03:12:13.399Z,102633.03
2023-04-09T03:14:39.901Z,102632.81
2023-04-09T03:17:06.508Z,102629.34
2023-04-09T03:19:33.022Z,102629.84
2023-04-09T03:21:59.440Z,102632.53
2023-04-09T03:24:25.864Z,102631.13
2023-04-09T03:26:52.230Z,102627.94
2023-04-09T03:29:19.752Z,102627.72
2023-04-09T03:31:46.108Z,102617.50
2023-04-09T03:34:12.504Z,102616.72
2023-04-09T03:36:39.025Z,102615.34
2023-04-09T03:39:05.586Z,102614.50
2023-04-09T03:41:32.024Z,102614.81
2023-04-09T03:43:58.412Z,102611.31
2023-04-09T03:46:25.585Z,102603.50
2023-04-09T03:48:52.203Z,102608.91
2023-04-09T03:51:18.892Z,102606.50
2023-04-09T03:53:45.468Z,102613.00
2023-04-09T03:56:11.987Z,102609.47
2023-04-09T03:58:47.740Z,102606.28
2023-04-09T04:01:14.333Z,102603.28
2023-04-09T04:03:41.093Z,102611.09
2023-04-09T04:06:07.764Z,102604.69
2023-04-09T04:08:34.216Z,102602.22
2023-04-09T04:11:10.421Z,102608.41
2023-04-09T04:13:42.658Z,102604.09
2023-04-09T04:16:10.293Z,102603.00
2023-04-09T04:18:36.950Z,102606.78
2023-04-09T04:21:03.710Z,102604.28
2023-04-09T04:23:30.219Z,102604.28
2023-04-09T04:25:58.109Z,102597.31
2023-04-09T04:28:24.600Z,102602.50
2023-04-09T04:30:51.238Z,102592.00
2023-04-09T04:33:17.696Z,102597.97
2023-04-09T04:35:44.208Z,102595.56
2023-04-09T04:38:13.538Z,102597.19
2023-04-09T04:40:47.479Z,102600.69
2023-04-09T04:43:26.273Z,102600.19
2023-04-09T04:45:53.660Z,102602.59
2023-04-09T04:48:20.459Z,102594.78
2023-04-09T04:50:47.038Z,102597.97
2023-04-09T04:53:13.440Z,102599.09
2023-04-09T04:55:48.298Z,102602.88
2023-04-09T04:58:14.984Z,102600.47
2023-04-09T05:00:41.437Z,102595.88
2023-04-09T05:03:07.906Z,102597.47
2023-04-09T05:05:34.470Z,102593.97
2023-04-09T05:08:09.231Z,102595.56
2023-04-09T05:10:43.827Z,102602.28
2023-04-09T05:13:10.330Z,102592.88
2023-04-09T05:15:41.269Z,102582.34
2023-04-09T05:18:08.496Z,102588.88
2023-04-09T05:20:35.202Z,102587.75
2023-04-09T05:23:01.922Z,102596.69
2023-04-09T05:25:28.514Z,102595.88
2023-04-09T05:27:55.492Z,102598.06
2023-04-09T05:30:22.162Z,102596.47
2023-04-09T05:32:48.612Z,102596.78
2023-04-09T05:35:15.082Z,102603.75
2023-04-09T05:37:41.576Z,102602.66
2023-04-09T05:40:08.754Z,102605.06
2023-04-09T05:42:36.005Z,102602.88
2023-04-09T05:45:02.977Z,102605.56
2023-04-09T05:47:29.437Z,102603.16
2023-04-09T05:49:56.138Z,102599.19
2023-04-09T05:52:22.593Z,102606.94
2023-04-09T05:54:49.248Z,102605.16
2023-04-09T05:57:15.913Z,102604.94
2023-04-09T05:59:42.237Z,102611.13
2023-04-09T06:02:08.904Z,102610.84
2023-04-09T06:04:35.432Z,102614.06
2023-04-09T06:07:02.633Z,102612.44
2023-04-09T06:09:29.365Z,102611.84
2023-04-09T06:12:10.761Z,102603.97
2023-04-09T06:14:37.673Z,102612.59
2023-04-09T06:17:08.374Z,102616.28
2023-04-09T06:19:35.228Z,102614.69
2023-04-09T06:22:01.807Z,102608.19
2023-04-09T06:24:28.393Z,102621.41
2023-04-09T06:26:54.992Z,102615.22
2023-04-09T06:29:24.194Z,102617.28
2023-04-09T06:31:50.818Z,102619.41
2023-04-09T06:34:17.208Z,102623.44
2023-04-09T06:36:44.588Z,102625.22
2023-04-09T06:39:11.113Z,102635.94
2023-04-09T06:41:37.597Z,102624.84
2023-04-09T06:44:04.118Z,102629.97
2023-04-09T06:46:30.601Z,102636.34
2023-04-09T06:48:57.048Z,102629.28
2023-04-09T06:51:23.613Z,102635.09
2023-04-09T06:53:50.238Z,102631.19
2023-04-09T06:56:16.876Z,102630.88
2023-04-09T06:58:43.277Z,102628.72
2023-04-09T07:01:10.208Z,102633.19
2023-04-09T07:03:36.970Z,102636.09
2023-04-09T07:06:04.298Z,102637.91
2023-04-09T07:08:30.926Z,102636.91
2023-04-09T07:10:57.444Z,102637.81
2023-04-09T07:13:24.021Z,102635.41
2023-04-09T07:15:50.473Z,102639.72
2023-04-09T07:18:17.062Z,102635.25
2023-04-09T07:20:46.652Z,102631.66
2023-04-09T07:23:13.209Z,102631.91
2023-04-09T07:25:39.758Z,102633.88
2023-04-09T07:28:06.368Z,102634.59
2023-04-09T07:30:32.885Z,102641.84
2023-04-09T07:32:59.525Z,102646.69
2023-04-09T07:35:26.231Z,102646.53
2023-04-09T07:37:52.707Z,102638.56
2023-04-09T07:40:19.932Z,102643.19
2023-04-09T07:42:46.372Z,102641.03
2023-04-09T07:48:02.656Z,102638.50
2023-04-09T07:50:29.930Z,102635.91
2023-04-09T07:52:56.424Z,102642.63
2023-04-09T07:55:22.975Z,102637.09
2023-04-09T07:57:49.378Z,102640.59
2023-04-09T08:00:16.442Z,102632.81
2023-04-09T08:02:43.932Z,102632.97
2023-04-09T08:05:10.979Z,102635.22
2023-04-09T08:07:37.559Z,102636.03
2023-04-09T08:10:04.818Z,102630.72
2023-04-09T08:12:31.193Z,102636.88
2023-04-09T08:14:57.711Z,102640.56
2023-04-09T08:17:24.708Z,102636.94
2023-04-09T08:19:51.409Z,102634.88
2023-04-09T08:22:18.074Z,102638.72
2023-04-09T08:24:44.642Z,102642.59
2023-04-09T08:27:11.212Z,102642.16
2023-04-09T08:29:38.746Z,102644.72
2023-04-09T08:32:05.394Z,102642.94
2023-04-09T08:34:31.767Z,102642.81
2023-04-09T08:36:58.397Z,102632.59
2023-04-09T08:39:25.367Z,102641.47
2023-04-09T08:41:52.320Z,102640.13
2023-04-09T08:44:19.065Z,102632.84
2023-04-09T08:46:45.450Z,102631.03
2023-04-09T08:49:17.903Z,102635.03
2023-04-09T08:51:48.621Z,102628.84
2023-04-09T08:54:17.304Z,102628.13
2023-04-09T08:56:43.842Z,102627.41
2023-04-09T08:59:10.219Z,102630.53
2023-04-09T09:01:36.964Z,102629.84
2023-04-09T09:04:08.286Z,102625.97
2023-04-09T09:06:37.307Z,102624.72
2023-04-09T09:09:08.026Z,102619.03
2023-04-09T09:11:40.459Z,102617.00
2023-04-09T09:14:09.114Z,102609.97
2023-04-09T09:16:43.550Z,102614.44
2023-04-09T09:19:28.714Z,102613.25
2023-04-09T09:21:59.887Z,102607.47
2023-04-09T09:24:26.408Z,102608.78
2023-04-09T09:26:54.635Z,102612.03
2023-04-09T09:29:22.326Z,102606.44
2023-04-09T09:31:56.554Z,102615.28
2023-04-09T09:34:24.771Z,102603.69
2023-04-09T09:36:51.337Z,102604.94
2023-04-09T09:39:17.981Z,102611.56
2023-04-09T09:41:46.000Z,102605.22
2023-04-09T09:44:30.246Z,102599.09
2023-04-09T09:46:58.681Z,102589.69
2023-04-09T09:49:25.336Z,102608.31
2023-04-09T09:51:53.379Z,102597.72
2023-04-09T09:54:25.280Z,102599.47
2023-04-09T09:56:55.981Z,102599.19
2023-04-09T09:59:31.004Z,102598.88
2023-04-09T10:02:02.351Z,102591.31
2023-04-09T10:04:33.435Z,102591.88
2023-04-09T10:07:04.086Z,102584.03
2023-04-09T10:09:31.254Z,102580.81
2023-04-09T10:11:59.353Z,102577.56
2023-04-09T10:14:27.517Z,102572.50
2023-04-09T10:16:54.064Z,102570.75
2023-04-09T10:19:22.452Z,102571.97
2023-04-09T10:22:04.454Z,102563.59
2023-04-09T10:24:31.806Z,102554.34
2023-04-09T10:27:15.708Z,102558.06
2023-04-09T10:29:47.990Z,102544.16
2023-04-09T10:32:26.887Z,102553.72
2023-04-09T10:34:57.733Z,102543.88
2023-04-09T10:37:26.089Z,102540.31
2023-04-09T10:39:53.670Z,102542.13
2023-04-09T10:42:42.049Z,102543.69
2023-04-09T10:45:11.998Z,102538.84
2023-04-09T10:47:40.684Z,102539.69
2023-04-09T10:50:18.749Z,102532.38
2023-04-09T10:52:46.026Z,102528.19
2023-04-09T10:55:34.540Z,102523.13
2023-04-09T10:58:00.949Z,102526.75
2023-04-09T11:00:27.518Z,102526.00
2023-04-09T11:03:03.215Z,102513.53
2023-04-09T11:05:33.988Z,102520.72
2023-04-09T11:08:06.576Z,102514.53
2023-04-09T11:10:34.211Z,102512.88
2023-04-09T11:13:01.491Z,102522.69
2023-04-09T11:15:28.538Z,102521.91
2023-04-09T11:17:55.615Z,102514.41
2023-04-09T11:20:24.525Z,102512.53
2023-04-09T11:22:56.163Z,102508.03
2023-04-09T11:25:25.725Z,102507.16
2023-04-09T11:27:52.950Z,102497.16
2023-04-09T11:30:20.308Z,102502.19
2023-04-09T11:32:53.202Z,102489.16
2023-04-09T11:35:21.454Z,102492.28
2023-04-09T11:37:50.049Z,102492.94
2023-04-09T11:40:21.964Z,102495.88
2023-04-09T11:42:50.205Z,102495.38
2023-04-09T11:45:17.626Z,102490.75
2023-04-09T11:47:45.195Z,102490.16
2023-04-09T11:50:13.965Z,102501.19
2023-04-09T11:52:41.457Z,102501.13
2023-04-09T11:55:09.598Z,102500.16
2023-04-09T11:57:47.055Z,102495.50
2023-04-09T12:00:17.679Z,102495.75
2023-04-09T12:02:49.391Z,102490.31
2023-04-09T12:05:24.863Z,102478.28
2023-04-09T12:10:30.491Z,102487.44
2023-04-09T12:13:03.176Z,102468.56
2023-04-09T12:15:34.868Z,102469.41
2023-04-09T12:18:01.993Z,102472.06
2023-04-09T12:20:49.750Z,102481.00
2023-04-09T12:23:16.643Z,102475.41
2023-04-09T12:25:45.275Z,102470.72
2023-04-09T12:28:17.980Z,102464.22
2023-04-09T12:30:44.907Z,102467.03
2023-04-09T12:33:11.650Z,102471.50
2023-04-09T12:35:38.626Z,102467.84
2023-04-09T12:38:05.653Z,102476.13
2023-04-09T12:40:32.281Z,102469.34
2023-04-09T12:42:59.146Z,102473.25
2023-04-09T12:48:06.545Z,102467.59
2023-04-09T12:50:33.338Z,102473.09
2023-04-09T12:53:03.588Z,102461.03
2023-04-09T12:55:30.052Z,102466.09
2023-04-09T12:57:56.705Z,102464.88
2023-04-09T13:00:23.145Z,102464.59
2023-04-09T13:02:49.937Z,102458.88
2023-04-09T13:05:16.474Z,102460.19
2023-04-09T13:07:43.567Z,102471.03
2023-04-09T13:10:10.578Z,102458.38
2023-04-09T13:12:37.430Z,102438.78
2023-04-09T13:15:04.213Z,102457.19
2023-04-09T13:17:30.638Z,102466.47
2023-04-09T13:19:57.111Z,102459.25
2023-04-09T13:22:23.521Z,102454.06
2023-04-09T13:24:50.092Z,102456.28
2023-04-09T13:27:17.330Z,102462.25
2023-04-09T13:29:43.799Z,102459.03
2023-04-09T13:34:51.363Z,102462.06
2023-04-09T13:37:17.841Z,102460.69
2023-04-09T13:39:45.424Z,102453.09
2023-04-09T13:42:13.951Z,102448.81
2023-04-09T13:44:42.731Z,102440.72
2023-04-09T13:47:11.410Z,102451.34
2023-04-09T13:49:38.056Z,102444.34
2023-04-09T13:52:05.032Z,102444.97
2023-04-09T13:54:32.201Z,102432.69
2023-04-09T13:56:58.759Z,102425.81
2023-04-09T13:59:25.402Z,102420.34
2023-04-09T14:01:52.181Z,102419.56
2023-04-09T14:04:19.365Z,102418.53
2023-04-09T14:06:46.870Z,102423.16
2023-04-09T14:09:13.389Z,102420.06
2023-04-09T14:11:39.770Z,102428.81
2023-04-09T14:14:06.400Z,102426.94
2023-04-09T14:16:33.067Z,102418.19
2023-04-09T14:18:59.807Z,102420.56
2023-04-09T14:21:27.063Z,102408.16
2023-04-09T14:23:53.672Z,102397.44
2023-04-09T14:26:21.645Z,102404.13
2023-04-09T14:28:49.572Z,102395.75
2023-04-09T14:31:20.266Z,102395.41
2023-04-09T14:33:47.719Z,102398.47
2023-04-09T14:36:14.491Z,102409.16
2023-04-09T14:38:40.963Z,102400.50
2023-04-09T14:41:10.032Z,102401.06
2023-04-09T14:43:36.531Z,102394.69
2023-04-09T14:46:04.077Z,102389.22
2023-04-09T14:48:30.664Z,102388.78
2023-04-09T14:50:57.248Z,102384.84
2023-04-09T14:53:23.820Z,102386.38
2023-04-09T14:55:50.446Z,102386.47
2023-04-09T14:58:17.285Z,102377.25
2023-04-09T15:00:45.173Z,102370.44
2023-04-09T15:03:11.957Z,102368.88
2023-04-09T15:05:38.854Z,102368.78
2023-04-09T15:08:05.701Z,102360.69
2023-04-09T15:10:32.316Z,102354.41
2023-04-09T15:13:07.949Z,102353.72
2023-04-09T15:15:34.508Z,102334.31
2023-04-09T15:18:09.876Z,102338.88
2023-04-09T15:20:40.494Z,102337.66
2023-04-09T15:23:06.990Z,102339.19
2023-04-09T15:25:33.400Z,102332.63
2023-04-09T15:28:00.014Z,102336.00
2023-04-09T15:30:26.559Z,102334.66
2023-04-09T15:32:53.232Z,102325.16
2023-04-09T15:35:25.013Z,102329.84
2023-04-09T15:37:52.296Z,102329.22
2023-04-09T15:40:19.202Z,102327.44
2023-04-09T15:42:45.939Z,102329.66
2023-04-09T15:45:14.696Z,102323.38
2023-04-09T15:47:47.033Z,102323.50
2023-04-09T15:50:14.583Z,102328.94
2023-04-09T15:52:41.355Z,102320.34
2023-04-09T15:55:08.573Z,102320.63
2023-04-09T15:57:35.195Z,102323.50
2023-04-09T16:00:01.895Z,102330.22
2023-04-09T16:02:28.586Z,102325.34
2023-04-09T16:04:55.689Z,102326.41
2023-04-09T16:07:22.130Z,102319.09
2023-04-09T16:09:49.018Z,102316.19
2023-04-09T16:12:15.438Z,102310.38
2023-04-09T16:14:42.339Z,102313.09
2023-04-09T16:17:08.941Z,102315.06
2023-04-09T16:19:39.471Z,102317.78
2023-04-09T16:22:06.494Z,102316.00
2023-04-09T16:24:33.008Z,102315.47
2023-04-09T16:26:59.394Z,102318.38
2023-04-09T16:29:25.953Z,102303.44
2023-04-09T16:31:52.992Z,102304.03
2023-04-09T16:34:19.920Z,102305.44
2023-04-09T16:36:46.376Z,102315.56
2023-04-09T16:39:15.626Z,102308.44
2023-04-09T16:41:43.461Z,102310.72
2023-04-09T16:44:10.538Z,102305.75
2023-04-09T16:46:36.952Z,102315.41
2023-04-09T16:49:03.453Z,102310.75
2023-04-09T16:51:29.954Z,102307.09
2023-04-09T16:53:56.518Z,102310.03
2023-04-09T16:56:41.398Z,102312.53
2023-04-09T16:59:08.167Z,102309.13
2023-04-09T17:01:41.162Z,102297.97
2023-04-09T17:04:07.881Z,102301.03
2023-04-09T17:06:34.446Z,102294.84
2023-04-09T17:09:01.423Z,102295.97
2023-04-09T17:11:28.270Z,102298.50
2023-04-09T17:13:55.049Z,102289.06
2023-04-09T17:16:22.019Z,102285.69
2023-04-09T17:18:48.755Z,102286.34
2023-04-09T17:21:15.621Z,102289.09
2023-04-09T17:23:42.752Z,102297.72
2023-04-09T17:26:09.223Z,102296.22
2023-04-09T17:28:36.147Z,102297.47
2023-04-09T17:31:02.713Z,102304.84
2023-04-09T17:33:29.266Z,102297.47
2023-04-09T17:35:57.562Z,102302.72
2023-04-09T17:38:25.301Z,102293.53
2023-04-09T17:40:53.275Z,102301.13
2023-04-09T17:43:19.703Z,102301.81
2023-04-09T17:45:46.336Z,102303.72
2023-04-09T17:48:12.744Z,102303.16
2023-04-09T17:50:39.261Z,102299.53
2023-04-09T17:53:05.651Z,102301.66
2023-04-09T17:55:32.254Z,102302.59
2023-04-09T17:57:58.715Z,102301.41
2023-04-09T18:00:25.206Z,102302.78
2023-04-09T18:02:53.258Z,102300.94
2023-04-09T18:05:20.361Z,102301.50
2023-04-09T18:07:46.970Z,102305.53
2023-04-09T18:10:13.421Z,102304.97
2023-04-09T18:12:39.955Z,102298.28
2023-04-09T18:15:07.192Z,102298.00
2023-04-09T18:17:33.821Z,102299.38
2023-04-09T18:20:00.446Z,102300.78
2023-04-09T18:22:27.401Z,102302.41
2023-04-09T18:24:54.496Z,102308.34
2023-04-09T18:27:21.587Z,102303.91
2023-04-09T18:29:51.097Z,102301.75
2023-04-09T18:32:19.379Z,102301.63
2023-04-09T18:34:47.017Z,102293.88
2023-04-09T18:37:14.596Z,102300.28
2023-04-09T18:39:41.559Z,102299.03
2023-04-09T18:42:08.128Z,102306.38
2023-04-09T18:44:36.340Z,102307.72
2023-04-09T18:47:05.925Z,102307.09
2023-04-09T18:49:33.433Z,102298.69
2023-04-09T18:52:00.294Z,102302.75
2023-04-09T18:54:26.912Z,102297.81
2023-04-09T18:56:53.575Z,102299.13
2023-04-09T18:59:19.986Z,102304.63
2023-04-09T19:01:46.465Z,102297.31
2023-04-09T19:04:13.053Z,102300.56
2023-04-09T19:06:39.619Z,102298.34
2023-04-09T19:09:06.836Z,102307.31
2023-04-09T19:14:13.709Z,102318.84
2023-04-09T19:16:40.182Z,102322.38
2023-04-09T19:19:06.602Z,102323.66
2023-04-09T19:21:33.859Z,102307.88
2023-04-09T19:24:00.371Z,102309.66
2023-04-09T19:26:27.183Z,102307.59
2023-04-09T19:28:53.896Z,102298.81
2023-04-09T19:31:20.726Z,102295.47
2023-04-09T19:33:47.313Z,102297.25
2023-04-09T19:36:14.004Z,102292.63
2023-04-09T19:38:41.078Z,102293.94
2023-04-09T19:41:07.646Z,102298.22
2023-04-09T19:43:34.405Z,102292.50
2023-04-09T19:46:05.986Z,102290.59
2023-04-09T19:48:32.791Z,102300.00
2023-04-09T19:50:59.201Z,102296.19
2023-04-09T19:53:25.630Z,102299.03
2023-04-09T19:56:00.853Z,102302.53
2023-04-09T19:58:33.630Z,102296.78
2023-04-09T20:01:00.044Z,102296.47
2023-04-09T20:03:26.561Z,102292.50
2023-04-09T20:05:53.576Z,102285.31
2023-04-09T20:08:20.019Z,102284.50
2023-04-09T20:10:47.246Z,102282.41
2023-04-09T20:13:13.922Z,102281.94
2023-04-09T20:15:40.355Z,102270.13
2023-04-09T20:18:07.344Z,102272.06
2023-04-09T20:20:35.186Z,102270.13
2023-04-09T20:23:01.781Z,102275.38
2023-04-09T20:25:34.316Z,102265.44
2023-04-09T20:28:12.416Z,102280.56
2023-04-09T20:30:38.802Z,102281.34
2023-04-09T20:33:05.233Z,102272.75
2023-04-09T20:35:35.300Z,102273.03
2023-04-09T20:38:01.914Z,102273.16
2023-04-09T20:40:28.676Z,102269.00
2023-04-09T20:45:36.249Z,102264.34
2023-04-09T20:48:02.963Z,102257.66
2023-04-09T20:50:31.001Z,102260.00
2023-04-09T20:52:58.735Z,102262.06
2023-04-09T20:55:25.966Z,102258.88
2023-04-09T20:57:53.937Z,102259.63
2023-04-09T21:00:20.558Z,102260.66
2023-04-09T21:02:47.221Z,102258.41
2023-04-09T21:05:22.782Z,102254.91
2023-04-09T21:07:51.680Z,102258.72
2023-04-09T21:10:22.198Z,102253.44
2023-04-09T21:12:48.867Z,102267.09
2023-04-09T21:15:21.742Z,102267.38
2023-04-09T21:17:48.214Z,102268.00
2023-04-09T21:20:16.557Z,102263.50
2023-04-09T21:22:43.182Z,102267.63
2023-04-09T21:25:09.706Z,102263.81
2023-04-09T21:27:36.208Z,102266.50
2023-04-09T21:30:02.819Z,102261.56
2023-04-09T21:32:29.319Z,102258.69
2023-04-09T21:34:55.773Z,102267.28
2023-04-09T21:37:22.616Z,102260.56
2023-04-09T21:39:49.120Z,102257.19
2023-04-09T21:42:15.737Z,102256.03
2023-04-09T21:44:42.212Z,102257.72
2023-04-09T21:47:09.630Z,102255.63
2023-04-09T21:49:39.186Z,102257.06
2023-04-09T21:52:10.818Z,102253.69
2023-04-09T21:54:37.360Z,102263.97
2023-04-09T21:57:03.917Z,102261.59
2023-04-09T21:59:30.744Z,102252.78
2023-04-09T22:01:57.290Z,102262.31
2023-04-09T22:04:23.826Z,102247.31
2023-04-09T22:06:50.344Z,102247.59
2023-04-09T22:09:17.125Z,102249.81
2023-04-09T22:11:43.514Z,102252.03
2023-04-09T22:14:10.662Z,102251.53
2023-04-09T22:16:37.017Z,102246.44
2023-04-09T22:19:03.962Z,102250.22
2023-04-09T22:21:37.584Z,102258.81
2023-04-09T22:24:04.027Z,102261.50
2023-04-09T22:26:31.539Z,102263.13
2023-04-09T22:28:58.137Z,102257.53
2023-04-09T22:31:27.343Z,102249.84
2023-04-09T22:33:53.871Z,102256.66
2023-04-09T22:36:20.371Z,102252.63
2023-04-09T22:38:46.977Z,102248.09
2023-04-09T22:41:13.547Z,102247.13
2023-04-09T22:43:39.949Z,102248.25
2023-04-09T22:46:07.316Z,102241.84
2023-04-09T22:48:40.760Z,102240.25
2023-04-09T22:51:11.321Z,102236.75
2023-04-09T22:53:37.706Z,102228.94
2023-04-09T22:56:04.270Z,102232.25
2023-04-09T22:58:30.795Z,102227.97
2023-04-09T23:00:57.554Z,102228.56
2023-04-09T23:03:25.961Z,102229.66
2023-04-09T23:05:58.764Z,102225.16
2023-04-09T23:08:25.451Z,102219.69
2023-04-09T23:10:51.926Z,102217.28
2023-04-09T23:13:18.545Z,102216.50
2023-04-09T23:15:45.044Z,102220.75
2023-04-09T23:18:11.937Z,102207.56
2023-04-09T23:20:38.443Z,102216.00
2023-04-09T23:23:04.874Z,102211.97
2023-04-09T23:25:31.721Z,102212.47
2023-04-09T23:27:58.119Z,102217.88
2023-04-09T23:30:24.836Z,102212.19
2023-04-09T23:32:56.318Z,102208.41
2023-04-09T23:35:23.899Z,102210.91
2023-04-09T23:37:50.479Z,102203.31
2023-04-09T23:40:19.824Z,102200.13
2023-04-09T23:42:47.888Z,102200.41
2023-04-09T23:45:14.866Z,102202.09
2023-04-09T23:47:42.267Z,102209.09
2023-04-09T23:50:09.250Z,102212.38
2023-04-09T23:52:37.965Z,102212.19
2023-04-09T23:55:08.863Z,102200.13
2023-04-09T23:57:35.590Z,102200.41
